sensor_id;sensor_type;location;lat;lon;timestamp;pressure;altitude;pressure_sealevel;temperature;humidity
22653;BME280;11493;43.344;26.226;2022-12-18T00:01:34;100099.22;;;8.72;100.00
22653;BME280;11493;43.344;26.226;2022-12-18T00:04:03;100087.22;;;8.63;100.00
22653;BME280;11493;43.344;26.226;2022-12-18T00:06:32;100092.16;;;8.61;100.00
22653;BME280;11493;43.344;26.226;2022-12-18T00:09:08;100108.06;;;8.59;100.00
22653;BME280;11493;43.344;26.226;2022-12-18T00:11:35;100114.63;;;8.63;100.00
22653;BME280;11493;43.344;26.226;2022-12-18T00:14:02;100120.94;;;8.64;100.00
22653;BME280;11493;43.344;26.226;2022-12-18T00:16:29;100133.81;;;8.68;100.00
22653;BME280;11493;43.344;26.226;2022-12-18T00:19:00;100140.41;;;8.67;100.00
22653;BME280;11493;43.344;26.226;2022-12-18T00:21:29;100135.50;;;8.59;100.00
22653;BME280;11493;43.344;26.226;2022-12-18T00:23:57;100145.66;;;8.59;100.00
22653;BME280;11493;43.344;26.226;2022-12-18T00:26:27;100146.78;;;8.52;100.00
22653;BME280;11493;43.344;26.226;2022-12-18T00:29:02;100156.66;;;8.48;100.00
22653;BME280;11493;43.344;26.226;2022-12-18T00:31:31;100163.78;;;8.54;100.00
22653;BME280;11493;43.344;26.226;2022-12-18T00:34:00;100152.88;;;8.39;100.00
22653;BME280;11493;43.344;26.226;2022-12-18T00:36:33;100140.81;;;8.30;100.00
22653;BME280;11493;43.344;26.226;2022-12-18T00:39:03;100149.03;;;8.30;100.00
22653;BME280;11493;43.344;26.226;2022-12-18T00:41:31;100158.91;;;8.31;100.00
22653;BME280;11493;43.344;26.226;2022-12-18T00:44:18;100163.84;;;8.29;100.00
22653;BME280;11493;43.344;26.226;2022-12-18T00:46:47;100174.81;;;8.24;100.00
22653;BME280;11493;43.344;26.226;2022-12-18T00:49:17;100181.41;;;8.23;100.00
22653;BME280;11493;43.344;26.226;2022-12-18T00:51:45;100177.56;;;8.29;100.00
22653;BME280;11493;43.344;26.226;2022-12-18T00:54:12;100168.78;;;8.22;100.00
22653;BME280;11493;43.344;26.226;2022-12-18T00:56:40;100154.81;;;8.18;100.00
22653;BME280;11493;43.344;26.226;2022-12-18T00:59:17;100162.56;;;8.06;100.00
22653;BME280;11493;43.344;26.226;2022-12-18T01:01:45;100178.13;;;8.21;100.00
22653;BME280;11493;43.344;26.226;2022-12-18T01:04:13;100161.75;;;8.06;100.00
22653;BME280;11493;43.344;26.226;2022-12-18T01:06:44;100178.72;;;8.08;100.00
22653;BME280;11493;43.344;26.226;2022-12-18T01:09:12;100181.47;;;8.03;100.00
22653;BME280;11493;43.344;26.226;2022-12-18T01:11:39;100171.09;;;7.84;100.00
22653;BME280;11493;43.344;26.226;2022-12-18T01:14:06;100194.09;;;7.94;100.00
22653;BME280;11493;43.344;26.226;2022-12-18T01:16:36;100207.25;;;7.97;100.00
22653;BME280;11493;43.344;26.226;2022-12-18T01:19:03;100202.31;;;7.94;100.00
22653;BME280;11493;43.344;26.226;2022-12-18T01:21:30;100195.75;;;8.00;100.00
22653;BME280;11493;43.344;26.226;2022-12-18T01:24:02;100201.75;;;8.02;100.00
22653;BME280;11493;43.344;26.226;2022-12-18T01:26:30;100199.28;;;8.00;100.00
22653;BME280;11493;43.344;26.226;2022-12-18T01:28:57;100198.47;;;7.89;100.00
22653;BME280;11493;43.344;26.226;2022-12-18T01:31:27;100207.25;;;7.97;100.00
22653;BME280;11493;43.344;26.226;2022-12-18T01:33:55;100202.03;;;7.95;100.00
22653;BME280;11493;43.344;26.226;2022-12-18T01:36:28;100214.09;;;8.04;100.00
22653;BME280;11493;43.344;26.226;2022-12-18T01:39:03;100206.16;;;7.98;100.00
22653;BME280;11493;43.344;26.226;2022-12-18T01:41:32;100218.22;;;8.02;100.00
22653;BME280;11493;43.344;26.226;2022-12-18T01:44:58;100219.03;;;7.97;100.00
22653;BME280;11493;43.344;26.226;2022-12-18T01:47:35;100220.69;;;7.83;100.00
22653;BME280;11493;43.344;26.226;2022-12-18T01:50:37;100225.34;;;7.82;100.00
22653;BME280;11493;43.344;26.226;2022-12-18T01:53:17;100216.56;;;7.85;100.00
22653;BME280;11493;43.344;26.226;2022-12-18T01:55:54;100213.00;;;7.75;100.00
22653;BME280;11493;43.344;26.226;2022-12-18T02:01:11;100232.47;;;7.68;100.00
22653;BME280;11493;43.344;26.226;2022-12-18T02:03:43;100236.56;;;7.66;100.00
22653;BME280;11493;43.344;26.226;2022-12-18T02:06:44;100234.09;;;7.59;100.00
22653;BME280;11493;43.344;26.226;2022-12-18T02:09:24;100256.00;;;7.54;100.00
22653;BME280;11493;43.344;26.226;2022-12-18T02:15:07;100252.72;;;7.47;100.00
22653;BME280;11493;43.344;26.226;2022-12-18T02:17:43;100252.44;;;7.48;100.00
22653;BME280;11493;43.344;26.226;2022-12-18T02:26:11;100268.56;;;7.24;100.00
22653;BME280;11493;43.344;26.226;2022-12-18T02:28:51;100251.03;;;7.15;100.00
22653;BME280;11493;43.344;26.226;2022-12-18T02:31:24;100263.06;;;7.14;100.00
22653;BME280;11493;43.344;26.226;2022-12-18T02:33:54;100260.59;;;7.08;100.00
22653;BME280;11493;43.344;26.226;2022-12-18T02:36:23;100263.28;;;6.98;100.00
22653;BME280;11493;43.344;26.226;2022-12-18T02:38:52;100258.34;;;6.95;100.00
22653;BME280;11493;43.344;26.226;2022-12-18T02:41:21;100245.78;;;6.99;100.00
22653;BME280;11493;43.344;26.226;2022-12-18T02:43:49;100251.44;;;6.82;100.00
22653;BME280;11493;43.344;26.226;2022-12-18T02:46:33;100276.31;;;6.75;100.00
22653;BME280;11493;43.344;26.226;2022-12-18T02:49:15;100257.41;;;6.64;100.00
22653;BME280;11493;43.344;26.226;2022-12-18T02:51:56;100276.28;;;6.65;100.00
22653;BME280;11493;43.344;26.226;2022-12-18T02:57:28;100272.94;;;6.53;100.00
22653;BME280;11493;43.344;26.226;2022-12-18T03:00:12;100283.06;;;6.52;100.00
22653;BME280;11493;43.344;26.226;2022-12-18T03:03:07;100274.53;;;6.44;100.00
22653;BME280;11493;43.344;26.226;2022-12-18T03:05:49;100291.78;;;6.49;100.00
22653;BME280;11493;43.344;26.226;2022-12-18T03:08:20;100271.69;;;6.29;100.00
22653;BME280;11493;43.344;26.226;2022-12-18T03:10:53;100289.53;;;6.41;100.00
22653;BME280;11493;43.344;26.226;2022-12-18T03:13:30;100288.69;;;6.36;100.00
22653;BME280;11493;43.344;26.226;2022-12-18T03:15:59;100303.16;;;6.31;100.00
22653;BME280;11493;43.344;26.226;2022-12-18T03:18:41;100263.13;;;6.15;100.00
22653;BME280;11493;43.344;26.226;2022-12-18T03:21:08;100295.19;;;6.24;100.00
22653;BME280;11493;43.344;26.226;2022-12-18T03:23:44;100283.31;;;6.09;100.00
22653;BME280;11493;43.344;26.226;2022-12-18T03:26:16;100300.91;;;6.23;100.00
22653;BME280;11493;43.344;26.226;2022-12-18T03:28:54;100320.59;;;6.25;100.00
22653;BME280;11493;43.344;26.226;2022-12-18T03:31:26;100324.50;;;6.34;100.00
22653;BME280;11493;43.344;26.226;2022-12-18T03:34:02;100323.41;;;6.35;100.00
22653;BME280;11493;43.344;26.226;2022-12-18T03:36:38;100334.06;;;6.37;100.00
22653;BME280;11493;43.344;26.226;2022-12-18T03:39:06;100335.75;;;6.43;100.00
22653;BME280;11493;43.344;26.226;2022-12-18T03:41:52;100302.03;;;6.27;100.00
22653;BME280;11493;43.344;26.226;2022-12-18T03:48:08;100347.81;;;6.47;100.00
22653;BME280;11493;43.344;26.226;2022-12-18T03:51:02;100339.63;;;6.47;100.00
22653;BME280;11493;43.344;26.226;2022-12-18T03:53:52;100362.97;;;6.65;100.00
22653;BME280;11493;43.344;26.226;2022-12-18T03:56:30;100344.34;;;6.56;100.00
22653;BME280;11493;43.344;26.226;2022-12-18T03:59:02;100359.44;;;6.69;100.00
22653;BME280;11493;43.344;26.226;2022-12-18T04:01:38;100372.59;;;6.77;100.00
22653;BME280;11493;43.344;26.226;2022-12-18T04:04:08;100360.25;;;6.70;100.00
22653;BME280;11493;43.344;26.226;2022-12-18T04:06:38;100380.56;;;6.79;100.00
22653;BME280;11493;43.344;26.226;2022-12-18T04:09:09;100377.78;;;6.74;100.00
22653;BME280;11493;43.344;26.226;2022-12-18T04:11:41;100387.91;;;6.73;100.00
22653;BME280;11493;43.344;26.226;2022-12-18T04:14:12;100386.50;;;6.71;100.00
22653;BME280;11493;43.344;26.226;2022-12-18T04:16:44;100381.53;;;6.57;100.00
22653;BME280;11493;43.344;26.226;2022-12-18T04:19:15;100387.59;;;6.65;100.00
22653;BME280;11493;43.344;26.226;2022-12-18T04:21:43;100388.09;;;6.56;100.00
22653;BME280;11493;43.344;26.226;2022-12-18T04:24:12;100395.19;;;6.57;100.00
22653;BME280;11493;43.344;26.226;2022-12-18T04:26:47;100395.13;;;6.47;100.00
22653;BME280;11493;43.344;26.226;2022-12-18T04:29:22;100389.00;;;6.35;100.00
22653;BME280;11493;43.344;26.226;2022-12-18T04:31:49;100387.34;;;6.34;100.00
22653;BME280;11493;43.344;26.226;2022-12-18T04:34:16;100392.00;;;6.34;100.00
22653;BME280;11493;43.344;26.226;2022-12-18T04:36:48;100395.03;;;6.37;100.00
22653;BME280;11493;43.344;26.226;2022-12-18T04:39:16;100393.91;;;6.33;100.00
22653;BME280;11493;43.344;26.226;2022-12-18T04:41:44;100404.84;;;6.33;100.00
22653;BME280;11493;43.344;26.226;2022-12-18T04:44:12;100419.06;;;6.35;100.00
22653;BME280;11493;43.344;26.226;2022-12-18T04:46:39;100418.22;;;6.30;100.00
22653;BME280;11493;43.344;26.226;2022-12-18T04:49:06;100431.56;;;6.26;100.00
22653;BME280;11493;43.344;26.226;2022-12-18T04:51:33;100413.53;;;6.25;100.00
22653;BME280;11493;43.344;26.226;2022-12-18T04:54:00;100433.81;;;6.34;100.00
22653;BME280;11493;43.344;26.226;2022-12-18T04:56:27;100433.81;;;6.34;100.00
22653;BME280;11493;43.344;26.226;2022-12-18T04:58:54;100438.78;;;6.37;100.00
22653;BME280;11493;43.344;26.226;2022-12-18T05:01:21;100446.19;;;6.42;100.00
22653;BME280;11493;43.344;26.226;2022-12-18T05:03:48;100442.56;;;6.31;100.00
22653;BME280;11493;43.344;26.226;2022-12-18T05:06:15;100441.47;;;6.32;100.00
22653;BME280;11493;43.344;26.226;2022-12-18T05:08:42;100464.78;;;6.40;100.00
22653;BME280;11493;43.344;26.226;2022-12-18T05:11:11;100465.91;;;6.44;100.00
22653;BME280;11493;43.344;26.226;2022-12-18T05:13:39;100446.41;;;6.35;100.00
22653;BME280;11493;43.344;26.226;2022-12-18T05:16:07;100453.53;;;6.36;100.00
22653;BME280;11493;43.344;26.226;2022-12-18T05:18:35;100460.75;;;6.47;100.00
22653;BME280;11493;43.344;26.226;2022-12-18T05:21:02;100463.44;;;6.42;100.00
22653;BME280;11493;43.344;26.226;2022-12-18T05:23:29;100466.22;;;6.47;100.00
22653;BME280;11493;43.344;26.226;2022-12-18T05:26:01;100465.91;;;6.44;100.00
22653;BME280;11493;43.344;26.226;2022-12-18T05:28:30;100482.56;;;6.42;100.00
22653;BME280;11493;43.344;26.226;2022-12-18T05:31:00;100448.69;;;6.16;99.13
22653;BME280;11493;43.344;26.226;2022-12-18T05:33:33;100488.50;;;6.34;99.72
22653;BME280;11493;43.344;26.226;2022-12-18T05:36:02;100504.06;;;6.34;100.00
22653;BME280;11493;43.344;26.226;2022-12-18T05:38:30;100504.13;;;6.39;100.00
22653;BME280;11493;43.344;26.226;2022-12-18T05:41:06;100500.31;;;6.40;100.00
22653;BME280;11493;43.344;26.226;2022-12-18T05:43:37;100509.53;;;6.34;100.00
22653;BME280;11493;43.344;26.226;2022-12-18T05:46:07;100521.09;;;6.41;100.00
22653;BME280;11493;43.344;26.226;2022-12-18T05:48:34;100522.75;;;6.42;100.00
22653;BME280;11493;43.344;26.226;2022-12-18T05:51:10;100522.19;;;6.40;100.00
22653;BME280;11493;43.344;26.226;2022-12-18T05:53:38;100527.66;;;6.40;100.00
22653;BME280;11493;43.344;26.226;2022-12-18T05:56:12;100525.84;;;6.23;100.00
22653;BME280;11493;43.344;26.226;2022-12-18T05:58:40;100531.09;;;6.30;100.00
22653;BME280;11493;43.344;26.226;2022-12-18T06:01:11;100550.22;;;6.30;100.00
22653;BME280;11493;43.344;26.226;2022-12-18T06:03:39;100531.63;;;6.27;100.00
22653;BME280;11493;43.344;26.226;2022-12-18T06:06:22;100548.00;;;6.27;100.00
22653;BME280;11493;43.344;26.226;2022-12-18T06:08:51;100552.53;;;6.16;100.00
22653;BME280;11493;43.344;26.226;2022-12-18T06:11:21;100559.84;;;6.11;100.00
22653;BME280;11493;43.344;26.226;2022-12-18T06:13:52;100561.50;;;6.12;99.33
22653;BME280;11493;43.344;26.226;2022-12-18T06:16:25;100578.03;;;6.22;98.76
22653;BME280;11493;43.344;26.226;2022-12-18T06:18:52;100578.59;;;6.02;98.03
22653;BME280;11493;43.344;26.226;2022-12-18T06:21:19;100568.63;;;6.13;97.82
22653;BME280;11493;43.344;26.226;2022-12-18T06:23:47;100587.03;;;6.22;97.16
22653;BME280;11493;43.344;26.226;2022-12-18T06:26:14;100586.59;;;6.09;97.08
22653;BME280;11493;43.344;26.226;2022-12-18T06:28:42;100572.81;;;5.99;96.14
22653;BME280;11493;43.344;26.226;2022-12-18T06:31:09;100590.41;;;6.08;95.55
22653;BME280;11493;43.344;26.226;2022-12-18T06:33:37;100593.03;;;5.98;94.48
22653;BME280;11493;43.344;26.226;2022-12-18T06:36:07;100598.94;;;5.89;93.71
22653;BME280;11493;43.344;26.226;2022-12-18T06:38:36;100594.97;;;5.80;93.56
22653;BME280;11493;43.344;26.226;2022-12-18T06:41:12;100617.97;;;5.84;93.98
22653;BME280;11493;43.344;26.226;2022-12-18T06:43:39;100606.63;;;5.92;94.61
22653;BME280;11493;43.344;26.226;2022-12-18T06:46:08;100616.53;;;5.99;95.11
22653;BME280;11493;43.344;26.226;2022-12-18T06:48:35;100620.91;;;6.00;94.18
22653;BME280;11493;43.344;26.226;2022-12-18T06:51:03;100624.78;;;6.04;93.57
22653;BME280;11493;43.344;26.226;2022-12-18T06:53:32;100631.84;;;6.00;93.15
22653;BME280;11493;43.344;26.226;2022-12-18T06:56:04;100624.28;;;6.07;93.34
22653;BME280;11493;43.344;26.226;2022-12-18T06:58:37;100616.16;;;6.12;92.84
22653;BME280;11493;43.344;26.226;2022-12-18T07:01:06;100632.44;;;6.23;92.29
22653;BME280;11493;43.344;26.226;2022-12-18T07:03:34;100639.47;;;6.19;91.90
22653;BME280;11493;43.344;26.226;2022-12-18T07:06:04;100631.53;;;6.18;90.60
22653;BME280;11493;43.344;26.226;2022-12-18T07:08:33;100660.00;;;6.22;91.38
22653;BME280;11493;43.344;26.226;2022-12-18T07:11:03;100656.00;;;6.30;90.52
22653;BME280;11493;43.344;26.226;2022-12-18T07:13:31;100664.03;;;6.36;91.32
22653;BME280;11493;43.344;26.226;2022-12-18T07:16:17;100661.28;;;6.36;91.87
22653;BME280;11493;43.344;26.226;2022-12-18T07:18:52;100662.13;;;6.37;91.46
22653;BME280;11493;43.344;26.226;2022-12-18T07:21:21;100667.31;;;6.38;91.41
22653;BME280;11493;43.344;26.226;2022-12-18T07:23:49;100677.31;;;6.49;91.18
22653;BME280;11493;43.344;26.226;2022-12-18T07:26:19;100670.63;;;6.40;91.42
22653;BME280;11493;43.344;26.226;2022-12-18T07:28:48;100678.97;;;6.50;91.88
22653;BME280;11493;43.344;26.226;2022-12-18T07:31:19;100686.41;;;6.55;91.71
22653;BME280;11493;43.344;26.226;2022-12-18T07:33:48;100670.00;;;6.55;91.93
22653;BME280;11493;43.344;26.226;2022-12-18T07:36:16;100678.59;;;6.64;92.39
22653;BME280;11493;43.344;26.226;2022-12-18T07:38:46;100687.13;;;6.72;92.50
22653;BME280;11493;43.344;26.226;2022-12-18T07:41:14;100683.63;;;6.77;92.82
22653;BME280;11493;43.344;26.226;2022-12-18T07:43:42;100663.31;;;6.68;92.69
22653;BME280;11493;43.344;26.226;2022-12-18T07:46:11;100675.84;;;6.64;93.30
22653;BME280;11493;43.344;26.226;2022-12-18T07:48:45;100687.63;;;6.69;94.05
22653;BME280;11493;43.344;26.226;2022-12-18T07:51:17;100690.03;;;6.61;93.82
22653;BME280;11493;43.344;26.226;2022-12-18T07:56:36;100698.91;;;6.73;91.57
22653;BME280;11493;43.344;26.226;2022-12-18T07:59:04;100700.56;;;6.74;86.79
22653;BME280;11493;43.344;26.226;2022-12-18T08:01:33;100705.34;;;6.62;86.98
22653;BME280;11493;43.344;26.226;2022-12-18T08:04:01;100713.25;;;6.58;86.96
22653;BME280;11493;43.344;26.226;2022-12-18T08:06:29;100704.72;;;6.54;87.93
22653;BME280;11493;43.344;26.226;2022-12-18T08:08:57;100720.13;;;6.61;87.62
22653;BME280;11493;43.344;26.226;2022-12-18T08:11:26;100716.81;;;6.58;87.96
22653;BME280;11493;43.344;26.226;2022-12-18T08:13:55;100736.13;;;6.74;88.35
22653;BME280;11493;43.344;26.226;2022-12-18T08:16:22;100724.75;;;6.60;88.04
22653;BME280;11493;43.344;26.226;2022-12-18T08:18:51;100721.72;;;6.56;87.73
22653;BME280;11493;43.344;26.226;2022-12-18T08:21:23;100701.41;;;6.52;87.63
22653;BME280;11493;43.344;26.226;2022-12-18T08:23:53;100738.25;;;6.67;85.89
22653;BME280;11493;43.344;26.226;2022-12-18T08:26:20;100726.75;;;6.70;86.77
22653;BME280;11493;43.344;26.226;2022-12-18T08:28:52;100726.28;;;7.00;86.61
22653;BME280;11493;43.344;26.226;2022-12-18T08:31:21;100719.09;;;6.93;86.78
22653;BME280;11493;43.344;26.226;2022-12-18T08:33:51;100728.97;;;6.95;86.54
22653;BME280;11493;43.344;26.226;2022-12-18T08:36:20;100736.88;;;6.91;87.46
22653;BME280;11493;43.344;26.226;2022-12-18T08:38:47;100734.25;;;7.01;87.14
22653;BME280;11493;43.344;26.226;2022-12-18T08:41:17;100724.84;;;6.92;85.55
22653;BME280;11493;43.344;26.226;2022-12-18T08:43:48;100719.75;;;7.01;84.57
22653;BME280;11493;43.344;26.226;2022-12-18T08:46:39;100719.69;;;6.96;85.25
22653;BME280;11493;43.344;26.226;2022-12-18T08:49:10;100713.91;;;6.92;84.73
22653;BME280;11493;43.344;26.226;2022-12-18T08:51:38;100719.63;;;6.69;83.61
22653;BME280;11493;43.344;26.226;2022-12-18T08:54:06;100729.25;;;6.71;83.31
22653;BME280;11493;43.344;26.226;2022-12-18T08:56:34;100730.03;;;6.67;83.36
22653;BME280;11493;43.344;26.226;2022-12-18T08:59:02;100736.19;;;6.79;83.59
22653;BME280;11493;43.344;26.226;2022-12-18T09:01:30;100735.03;;;6.75;83.85
22653;BME280;11493;43.344;26.226;2022-12-18T09:03:58;100713.63;;;6.67;83.82
22653;BME280;11493;43.344;26.226;2022-12-18T09:06:26;100731.91;;;6.88;84.39
22653;BME280;11493;43.344;26.226;2022-12-18T09:08:54;100729.81;;;6.95;82.76
22653;BME280;11493;43.344;26.226;2022-12-18T09:11:28;100721.91;;;6.77;83.64
22653;BME280;11493;43.344;26.226;2022-12-18T09:13:57;100734.19;;;6.74;84.50
22653;BME280;11493;43.344;26.226;2022-12-18T09:16:25;100737.31;;;6.83;85.79
22653;BME280;11493;43.344;26.226;2022-12-18T09:19:02;100734.19;;;6.74;85.77
22653;BME280;11493;43.344;26.226;2022-12-18T09:21:32;100738.84;;;6.74;85.05
22653;BME280;11493;43.344;26.226;2022-12-18T09:24:03;100727.41;;;6.77;85.57
22653;BME280;11493;43.344;26.226;2022-12-18T09:26:34;100723.13;;;6.86;85.67
22653;BME280;11493;43.344;26.226;2022-12-18T09:29:02;100727.31;;;6.93;85.75
22653;BME280;11493;43.344;26.226;2022-12-18T09:31:33;100726.13;;;6.84;85.19
22653;BME280;11493;43.344;26.226;2022-12-18T09:34:03;100715.50;;;6.88;85.45
22653;BME280;11493;43.344;26.226;2022-12-18T09:36:31;100715.03;;;6.96;86.17
22653;BME280;11493;43.344;26.226;2022-12-18T09:38:58;100723.31;;;7.01;85.75
22653;BME280;11493;43.344;26.226;2022-12-18T09:41:43;100714.88;;;7.08;83.94
22653;BME280;11493;43.344;26.226;2022-12-18T09:46:47;100723.81;;;6.98;83.84
22653;BME280;11493;43.344;26.226;2022-12-18T09:49:19;100728.00;;;7.06;82.69
22653;BME280;11493;43.344;26.226;2022-12-18T09:52:09;100732.16;;;6.86;82.62
22653;BME280;11493;43.344;26.226;2022-12-18T09:54:39;100715.84;;;6.97;82.78
22653;BME280;11493;43.344;26.226;2022-12-18T09:57:18;100723.41;;;7.11;81.57
22653;BME280;11493;43.344;26.226;2022-12-18T10:00:17;100738.47;;;6.87;81.83
22653;BME280;11493;43.344;26.226;2022-12-18T10:02:47;100726.38;;;6.83;81.86
22653;BME280;11493;43.344;26.226;2022-12-18T10:20:02;100730.19;;;6.82;83.40
22653;BME280;11493;43.344;26.226;2022-12-18T10:25:19;100744.53;;;7.16;83.41
22653;BME280;11493;43.344;26.226;2022-12-18T10:28:06;100745.38;;;6.95;82.37
22653;BME280;11493;43.344;26.226;2022-12-18T10:30:35;100746.78;;;6.97;82.73
22653;BME280;11493;43.344;26.226;2022-12-18T10:33:03;100737.81;;;6.80;82.66
22653;BME280;11493;43.344;26.226;2022-12-18T10:35:30;100738.16;;;6.83;83.62
22653;BME280;11493;43.344;26.226;2022-12-18T10:38:29;100738.47;;;6.87;84.00
22653;BME280;11493;43.344;26.226;2022-12-18T10:43:34;100758.81;;;6.96;84.19
22653;BME280;11493;43.344;26.226;2022-12-18T10:51:33;100760.47;;;6.97;82.87
22653;BME280;11493;43.344;26.226;2022-12-18T10:54:23;100759.56;;;7.13;82.60
22653;BME280;11493;43.344;26.226;2022-12-18T10:59:56;100751.91;;;7.15;81.67
22653;BME280;11493;43.344;26.226;2022-12-18T11:02:37;100768.47;;;7.25;82.44
22653;BME280;11493;43.344;26.226;2022-12-18T11:07:54;100791.44;;;7.51;80.96
22653;BME280;11493;43.344;26.226;2022-12-18T11:10:32;100785.06;;;7.46;79.36
22653;BME280;11493;43.344;26.226;2022-12-18T11:13:16;100783.22;;;7.51;79.80
22653;BME280;11493;43.344;26.226;2022-12-18T11:15:48;100774.53;;;7.59;79.82
22653;BME280;11493;43.344;26.226;2022-12-18T11:18:29;100792.19;;;7.74;80.72
22653;BME280;11493;43.344;26.226;2022-12-18T11:21:04;100801.41;;;7.63;78.09
22653;BME280;11493;43.344;26.226;2022-12-18T11:23:50;100795.50;;;7.76;78.70
22653;BME280;11493;43.344;26.226;2022-12-18T11:26:19;100782.78;;;7.97;77.34
22653;BME280;11493;43.344;26.226;2022-12-18T11:28:50;100770.56;;;7.77;77.35
22653;BME280;11493;43.344;26.226;2022-12-18T11:31:42;100797.34;;;7.97;77.13
22653;BME280;11493;43.344;26.226;2022-12-18T11:34:30;100797.16;;;8.09;77.11
22653;BME280;11493;43.344;26.226;2022-12-18T11:37:00;100794.84;;;7.96;76.38
22653;BME280;11493;43.344;26.226;2022-12-18T11:40:06;100796.44;;;7.59;74.85
22653;BME280;11493;43.344;26.226;2022-12-18T11:42:39;100800.41;;;7.47;75.40
22653;BME280;11493;43.344;26.226;2022-12-18T11:50:57;100793.19;;;7.63;78.02
22653;BME280;11493;43.344;26.226;2022-12-18T11:53:51;100790.09;;;7.54;78.04
22653;BME280;11493;43.344;26.226;2022-12-18T11:57:15;100768.13;;;7.49;77.09
22653;BME280;11493;43.344;26.226;2022-12-18T12:00:20;100795.41;;;7.66;76.75
22653;BME280;11493;43.344;26.226;2022-12-18T12:08:46;100774.59;;;7.38;76.22
22653;BME280;11493;43.344;26.226;2022-12-18T12:11:25;100796.03;;;7.46;76.95
22653;BME280;11493;43.344;26.226;2022-12-18T12:17:18;100699.06;;;6.61;78.38
22653;BME280;11493;43.344;26.226;2022-12-18T12:23:01;100789.50;;;6.98;78.16
22653;BME280;11493;43.344;26.226;2022-12-18T12:39:01;100792.81;;;7.00;77.49
22653;BME280;11493;43.344;26.226;2022-12-18T12:41:36;100798.34;;;7.05;77.46
22653;BME280;11493;43.344;26.226;2022-12-18T12:44:28;100803.75;;;7.00;77.42
22653;BME280;11493;43.344;26.226;2022-12-18T12:47:00;100797.81;;;6.86;78.46
22653;BME280;11493;43.344;26.226;2022-12-18T12:49:31;100809.34;;;6.88;78.66
22653;BME280;11493;43.344;26.226;2022-12-18T12:52:15;100808.00;;;6.91;80.02
22653;BME280;11493;43.344;26.226;2022-12-18T12:54:47;100804.91;;;7.04;80.06
22653;BME280;11493;43.344;26.226;2022-12-18T13:00:09;100805.41;;;7.01;77.61
22653;BME280;11493;43.344;26.226;2022-12-18T13:08:11;100817.63;;;6.93;78.37
22653;BME280;11493;43.344;26.226;2022-12-18T13:11:12;100822.84;;;6.95;79.24
22653;BME280;11493;43.344;26.226;2022-12-18T13:20:08;100841.75;;;6.97;79.35
22653;BME280;11493;43.344;26.226;2022-12-18T13:22:38;100845.50;;;6.90;80.57
22653;BME280;11493;43.344;26.226;2022-12-18T13:28:16;100852.97;;;6.78;81.34
22653;BME280;11493;43.344;26.226;2022-12-18T13:30:52;100852.41;;;6.76;80.76
22653;BME280;11493;43.344;26.226;2022-12-18T13:38:42;100877.66;;;6.62;81.00
22653;BME280;11493;43.344;26.226;2022-12-18T13:44:12;100838.50;;;6.39;80.53
22653;BME280;11493;43.344;26.226;2022-12-18T13:46:44;100885.03;;;6.61;82.33
22653;BME280;11493;43.344;26.226;2022-12-18T13:51:43;100885.31;;;6.43;81.17
22653;BME280;11493;43.344;26.226;2022-12-18T13:54:40;100896.06;;;6.49;82.13
22653;BME280;11493;43.344;26.226;2022-12-18T13:57:30;100881.66;;;6.37;82.93
22653;BME280;11493;43.344;26.226;2022-12-18T13:59:58;100896.16;;;6.38;82.15
22653;BME280;11493;43.344;26.226;2022-12-18T14:02:28;100876.03;;;6.27;82.43
22653;BME280;11493;43.344;26.226;2022-12-18T14:04:56;100896.41;;;6.36;82.37
22653;BME280;11493;43.344;26.226;2022-12-18T14:07:28;100895.75;;;6.46;82.00
22653;BME280;11493;43.344;26.226;2022-12-18T14:10:13;100902.44;;;6.38;83.20
22653;BME280;11493;43.344;26.226;2022-12-18T14:13:07;100920.19;;;6.36;83.29
22653;BME280;11493;43.344;26.226;2022-12-18T14:15:42;100910.97;;;6.25;83.78
22653;BME280;11493;43.344;26.226;2022-12-18T14:18:41;100911.66;;;6.32;83.61
22653;BME280;11493;43.344;26.226;2022-12-18T14:21:21;100923.25;;;6.39;83.47
22653;BME280;11493;43.344;26.226;2022-12-18T14:23:49;100913.72;;;6.42;84.76
22653;BME280;11493;43.344;26.226;2022-12-18T14:26:31;100911.72;;;6.37;84.88
22653;BME280;11493;43.344;26.226;2022-12-18T14:29:14;100918.69;;;6.45;84.05
22653;BME280;11493;43.344;26.226;2022-12-18T14:31:45;100919.03;;;6.48;83.08
22653;BME280;11493;43.344;26.226;2022-12-18T14:34:15;100939.00;;;6.49;83.80
22653;BME280;11493;43.344;26.226;2022-12-18T14:36:52;100932.25;;;6.23;83.80
22653;BME280;11493;43.344;26.226;2022-12-18T14:39:19;100930.69;;;6.27;84.04
22653;BME280;11493;43.344;26.226;2022-12-18T14:41:51;100934.69;;;6.36;84.37
22653;BME280;11493;43.344;26.226;2022-12-18T14:44:18;100929.13;;;6.31;84.36
22653;BME280;11493;43.344;26.226;2022-12-18T14:46:46;100939.81;;;6.33;84.67
22653;BME280;11493;43.344;26.226;2022-12-18T14:49:31;100946.94;;;6.34;84.58
22653;BME280;11493;43.344;26.226;2022-12-18T14:52:23;100951.56;;;6.33;84.53
22653;BME280;11493;43.344;26.226;2022-12-18T14:54:53;100952.06;;;6.30;85.01
22653;BME280;11493;43.344;26.226;2022-12-18T14:57:27;100951.09;;;6.36;85.17
22653;BME280;11493;43.344;26.226;2022-12-18T15:00:11;100936.16;;;6.27;85.44
22653;BME280;11493;43.344;26.226;2022-12-18T15:02:43;100953.06;;;6.41;85.39
22653;BME280;11493;43.344;26.226;2022-12-18T15:05:26;100953.91;;;6.41;85.58
22653;BME280;11493;43.344;26.226;2022-12-18T15:07:56;100955.66;;;6.47;85.53
22653;BME280;11493;43.344;26.226;2022-12-18T15:10:30;100953.41;;;6.44;86.17
22653;BME280;11493;43.344;26.226;2022-12-18T15:20:31;100943.28;;;6.28;86.29